Time;durP1;ratioP1;P1;durP2;ratioP2;P2;SDS_P1;SDS_P2;PMS_P1;PMS_P2;Temp;Humidity;BMP_temperature;BMP_pressure;BME280_temperature;BME280_humidity;BME280_pressure;Samples;Min_cycle;Max_cycle;Signal;HPM_P1;HPM_P2
2022/11/23 00:02:05;;;;;;;;;;;;;;;6.32;100.00;99404.56;5026422;28;19933;-74
2022/11/23 00:04:31;;;;;;;;;;;;;;;6.34;100.00;99412.38;5032355;28;19929;-75
2022/11/23 00:06:56;;;;;;;;;;;;;;;6.35;100.00;99404.44;5047092;28;20078;-74
2022/11/23 00:09:21;;;;;;;;;;;;;;;6.35;100.00;99399.16;5047022;28;19974;-74
2022/11/23 00:11:47;;;;;;;;;;;;;;;6.36;100.00;99406.13;5046957;28;19932;-75
2022/11/23 00:14:12;;;;;;;;;;;;;;;6.35;100.00;99404.44;5061292;28;20019;-75
2022/11/23 00:16:38;;;;;;;;;;;;;;;6.35;100.00;99393.06;5031445;28;20399;-75
2022/11/23 00:19:03;;;;;;;;;;;;;;;6.32;100.00;99390.59;5046687;28;20588;-75
2022/11/23 00:21:29;;;;;;;;;;;;;;;6.30;100.00;99397.69;5046769;28;20000;-75
2022/11/23 00:23:55;;;;;;;;;;;;;;;6.28;100.00;99395.16;5031332;28;19928;-75
2022/11/23 00:26:20;;;;;;;;;;;;;;;6.26;100.00;99394.38;5046537;28;19933;-75
2022/11/23 00:28:46;;;;;;;;;;;;;;;6.25;100.00;99397.94;5036817;28;20323;-75
2022/11/23 00:31:12;;;;;;;;;;;;;;;6.24;100.00;99393.59;5027484;28;20363;-75
2022/11/23 00:33:38;;;;;;;;;;;;;;;6.21;100.00;99394.59;5027320;28;19924;-75
2022/11/23 00:36:07;;;;;;;;;;;;;;;6.21;100.00;99391.13;5030980;28;19935;-74
2022/11/23 00:38:33;;;;;;;;;;;;;;;6.19;100.00;99393.84;5013415;28;19932;-75
2022/11/23 00:41:03;;;;;;;;;;;;;;;6.19;100.00;99390.34;5032664;28;19928;-75
2022/11/23 00:43:29;;;;;;;;;;;;;;;6.19;100.00;99414.00;5016520;28;19963;-75
2022/11/23 00:46:04;;;;;;;;;;;;;;;6.20;100.00;99428.84;5044151;28;19999;-75
2022/11/23 00:48:30;;;;;;;;;;;;;;;6.22;100.00;99432.25;5046218;28;19928;-75
2022/11/23 00:50:55;;;;;;;;;;;;;;;6.23;100.00;99433.97;5026148;28;20544;-75
2022/11/23 00:53:21;;;;;;;;;;;;;;;6.23;100.00;99429.53;5046652;28;19943;-75
2022/11/23 00:55:50;;;;;;;;;;;;;;;6.24;100.00;99433.03;5043192;28;21907;-75
2022/11/23 00:58:15;;;;;;;;;;;;;;;6.25;100.00;99432.09;5027341;28;19979;-75
2022/11/23 01:00:40;;;;;;;;;;;;;;;6.26;100.00;99441.69;5046278;28;20019;-75
2022/11/23 01:03:06;;;;;;;;;;;;;;;6.27;100.00;99442.53;5045902;28;20027;-75
2022/11/23 01:05:35;;;;;;;;;;;;;;;6.28;100.00;99441.59;5046107;28;20380;-75
2022/11/23 01:08:01;;;;;;;;;;;;;;;6.28;100.00;99446.88;5029357;28;20489;-75
2022/11/23 01:10:26;;;;;;;;;;;;;;;6.28;100.00;99445.09;5045846;28;19927;-75
2022/11/23 01:12:52;;;;;;;;;;;;;;;6.28;100.00;99442.47;5027729;28;20034;-75
2022/11/23 01:15:17;;;;;;;;;;;;;;;6.29;100.00;99436.28;5026536;28;19925;-75
2022/11/23 01:17:42;;;;;;;;;;;;;;;6.30;100.00;99439.75;5045543;28;19966;-75
2022/11/23 01:20:08;;;;;;;;;;;;;;;6.30;100.00;99437.97;5045894;28;19968;-75
2022/11/23 01:22:33;;;;;;;;;;;;;;;6.31;100.00;99441.47;5029832;28;19932;-75
2022/11/23 01:24:59;;;;;;;;;;;;;;;6.31;100.00;99441.47;5045539;28;19929;-75
2022/11/23 01:27:24;;;;;;;;;;;;;;;6.32;100.00;99443.16;5045594;28;19928;-75
2022/11/23 01:29:49;;;;;;;;;;;;;;;6.31;100.00;99442.31;5030107;28;19924;-75
2022/11/23 01:32:15;;;;;;;;;;;;;;;6.32;100.00;99445.78;5045071;28;19990;-75
2022/11/23 01:34:40;;;;;;;;;;;;;;;6.31;100.00;99447.56;5045893;28;19982;-75
2022/11/23 01:37:06;;;;;;;;;;;;;;;6.32;100.00;99449.25;5045522;28;19929;-75
2022/11/23 01:39:31;;;;;;;;;;;;;;;6.32;100.00;99454.50;5045048;28;19966;-75
2022/11/23 01:41:56;;;;;;;;;;;;;;;6.34;100.00;99454.44;5019220;28;20078;-75
2022/11/23 01:44:29;;;;;;;;;;;;;;;6.34;100.00;99457.06;5045611;28;19929;-75
2022/11/23 01:46:56;;;;;;;;;;;;;;;6.34;100.00;99457.94;5044723;28;19928;-75
2022/11/23 01:49:21;;;;;;;;;;;;;;;6.35;100.00;99453.50;5045244;28;19974;-75
2022/11/23 01:51:48;;;;;;;;;;;;;;;6.35;100.00;99464.91;5044991;28;20019;-75
2022/11/23 01:54:17;;;;;;;;;;;;;;;6.36;100.00;99456.06;5031186;28;19956;-75
2022/11/23 01:56:45;;;;;;;;;;;;;;;6.36;100.00;99461.34;5031883;28;19958;-75
2022/11/23 01:59:12;;;;;;;;;;;;;;;6.38;100.00;99456.00;5042662;28;19932;-75
2022/11/23 02:01:37;;;;;;;;;;;;;;;6.38;100.00;99459.47;5029567;28;19931;-75
2022/11/23 02:04:03;;;;;;;;;;;;;;;6.38;100.00;99459.47;5045355;28;21479;-75
2022/11/23 02:06:28;;;;;;;;;;;;;;;6.40;100.00;99464.66;5044857;28;19932;-75
2022/11/23 02:08:53;;;;;;;;;;;;;;;6.41;100.00;99468.13;5043740;28;19929;-75
2022/11/23 02:11:19;;;;;;;;;;;;;;;6.41;100.00;99468.97;5045498;28;19932;-75
2022/11/23 02:13:45;;;;;;;;;;;;;;;6.41;100.00;99466.34;5044625;28;19928;-75
2022/11/23 02:16:10;;;;;;;;;;;;;;;6.42;100.00;99462.78;5041088;28;21400;-75
2022/11/23 02:18:39;;;;;;;;;;;;;;;6.43;100.00;99453.13;5044190;28;20394;-75
2022/11/23 02:21:04;;;;;;;;;;;;;;;6.43;100.00;99455.78;5026148;28;19929;-75
2022/11/23 02:23:39;;;;;;;;;;;;;;;6.44;100.00;99449.56;5024541;28;19928;-75
2022/11/23 02:26:15;;;;;;;;;;;;;;;6.46;100.00;99452.97;5044629;28;19932;-75
2022/11/23 02:28:42;;;;;;;;;;;;;;;6.46;100.00;99447.72;5025636;28;20426;-75
2022/11/23 02:31:07;;;;;;;;;;;;;;;6.46;100.00;99447.72;5029268;28;19936;-75
2022/11/23 02:33:33;;;;;;;;;;;;;;;6.45;100.00;99432.88;5044997;28;20406;-76
2022/11/23 02:35:59;;;;;;;;;;;;;;;6.45;100.00;99432.88;5030914;28;19935;-74
2022/11/23 02:38:25;;;;;;;;;;;;;;;6.44;100.00;99439.94;5030173;28;19928;-75
2022/11/23 02:40:51;;;;;;;;;;;;;;;6.44;100.00;99457.47;5044973;28;19924;-75
2022/11/23 02:43:19;;;;;;;;;;;;;;;6.42;100.00;99464.59;5014455;28;19951;-76
2022/11/23 02:45:49;;;;;;;;;;;;;;;6.41;100.00;99458.47;5043902;28;20534;-75
2022/11/23 02:48:14;;;;;;;;;;;;;;;6.39;100.00;99453.28;5044564;28;21394;-75
2022/11/23 02:50:40;;;;;;;;;;;;;;;6.38;100.00;99451.59;5044738;28;19932;-75
2022/11/23 02:53:05;;;;;;;;;;;;;;;6.37;100.00;99456.91;5024581;28;19932;-76
2022/11/23 02:55:30;;;;;;;;;;;;;;;6.36;100.00;99458.69;5044256;28;19938;-75
2022/11/23 02:57:56;;;;;;;;;;;;;;;6.34;100.00;99463.19;5044294;28;20434;-75
2022/11/23 03:00:21;;;;;;;;;;;;;;;6.33;100.00;99458.84;5044108;28;19982;-75
2022/11/23 03:02:46;;;;;;;;;;;;;;;6.31;100.00;99465.97;5034268;28;19928;-75
2022/11/23 03:05:12;;;;;;;;;;;;;;;6.31;100.00;99459.88;5044310;28;21584;-75
2022/11/23 03:07:37;;;;;;;;;;;;;;;6.30;100.00;99466.91;5027855;28;19933;-75
2022/11/23 03:10:03;;;;;;;;;;;;;;;6.31;100.00;99470.38;5043441;28;20714;-75
2022/11/23 03:12:28;;;;;;;;;;;;;;;6.30;100.00;99482.66;5041488;28;19929;-75
2022/11/23 03:14:54;;;;;;;;;;;;;;;6.31;100.00;99481.72;5043684;28;20054;-75
2022/11/23 03:17:19;;;;;;;;;;;;;;;6.29;100.00;99480.97;5034318;28;19924;-75
2022/11/23 03:19:45;;;;;;;;;;;;;;;6.28;100.00;99484.53;5043653;28;19938;-75
2022/11/23 03:22:10;;;;;;;;;;;;;;;6.27;100.00;99482.84;5027970;28;19939;-75
2022/11/23 03:24:36;;;;;;;;;;;;;;;6.28;100.00;99494.19;5043850;28;20014;-76
2022/11/23 03:27:01;;;;;;;;;;;;;;;6.26;100.00;99489.00;5057664;28;21367;-75
2022/11/23 03:29:26;;;;;;;;;;;;;;;6.24;100.00;99496.09;5041184;28;19928;-75
2022/11/23 03:31:52;;;;;;;;;;;;;;;6.24;100.00;99498.72;5047331;28;20020;-75
2022/11/23 03:34:17;;;;;;;;;;;;;;;6.23;100.00;99497.88;5032013;28;19935;-75
2022/11/23 03:36:43;;;;;;;;;;;;;;;6.24;100.00;99504.00;5048371;28;20515;-75
2022/11/23 03:39:08;;;;;;;;;;;;;;;6.23;100.00;99497.88;5047182;28;19986;-75
2022/11/23 03:41:34;;;;;;;;;;;;;;;6.24;100.00;99504.00;5048126;28;20327;-75
2022/11/23 03:43:59;;;;;;;;;;;;;;;6.23;100.00;99497.03;5045172;28;19936;-74
2022/11/23 03:46:24;;;;;;;;;;;;;;;6.22;100.00;99498.81;5047477;28;19938;-75
2022/11/23 03:48:53;;;;;;;;;;;;;;;6.20;100.00;99500.66;5047292;28;21413;-75
2022/11/23 03:51:18;;;;;;;;;;;;;;;6.18;100.00;99501.66;5047676;28;20470;-75
2022/11/23 03:53:44;;;;;;;;;;;;;;;6.13;100.00;99499.25;5047213;28;19954;-75
2022/11/23 03:56:09;;;;;;;;;;;;;;;6.10;100.00;99502.88;5047479;28;19978;-76
2022/11/23 03:58:34;;;;;;;;;;;;;;;6.05;100.00;99499.63;5047661;28;19932;-75
2022/11/23 04:01:00;;;;;;;;;;;;;;;6.03;100.00;99498.84;5031495;28;19928;-75
2022/11/23 04:03:25;;;;;;;;;;;;;;;6.01;100.00;99508.56;5031454;28;20024;-75
2022/11/23 04:05:51;;;;;;;;;;;;;;;6.00;100.00;99501.59;5047259;28;19938;-75
2022/11/23 04:08:16;;;;;;;;;;;;;;;6.00;100.00;99506.00;5046671;28;21424;-75
2022/11/23 04:10:41;;;;;;;;;;;;;;;6.00;100.00;99498.97;5061137;28;19929;-75
2022/11/23 04:13:07;;;;;;;;;;;;;;;5.99;100.00;99492.00;5047822;28;19936;-75
2022/11/23 04:15:32;;;;;;;;;;;;;;;6.01;100.00;99494.56;5047012;28;19936;-76
2022/11/23 04:17:57;;;;;;;;;;;;;;;6.02;100.00;99494.53;5028044;28;19984;-75
2022/11/23 04:20:23;;;;;;;;;;;;;;;6.04;100.00;99490.03;5047218;28;19933;-75
2022/11/23 04:22:48;;;;;;;;;;;;;;;6.08;100.00;99488.13;5046608;28;20375;-75
2022/11/23 04:25:14;;;;;;;;;;;;;;;6.10;100.00;99489.75;5061131;28;19932;-75
2022/11/23 04:27:39;;;;;;;;;;;;;;;6.13;100.00;99482.63;5061098;28;19933;-75
2022/11/23 04:30:07;;;;;;;;;;;;;;;6.14;100.00;99493.06;5046790;28;20484;-75
2022/11/23 04:32:33;;;;;;;;;;;;;;;6.16;100.00;99490.38;5047317;28;19929;-75
2022/11/23 04:34:58;;;;;;;;;;;;;;;6.17;100.00;99495.56;5046871;28;19928;-75
2022/11/23 04:37:23;;;;;;;;;;;;;;;6.17;100.00;99498.19;5047183;28;20303;-75
2022/11/23 04:39:49;;;;;;;;;;;;;;;6.16;100.00;99506.97;5045660;28;20298;-75
2022/11/23 04:42:14;;;;;;;;;;;;;;;6.15;100.00;99499.19;5046775;28;19928;-75
2022/11/23 04:44:40;;;;;;;;;;;;;;;6.13;100.00;99508.91;5046262;28;20444;-75
2022/11/23 04:47:05;;;;;;;;;;;;;;;6.09;100.00;99503.81;5027509;28;20344;-75
2022/11/23 04:49:31;;;;;;;;;;;;;;;6.08;100.00;99507.38;5030969;28;20603;-75
2022/11/23 04:51:56;;;;;;;;;;;;;;;6.05;100.00;99499.63;5046430;28;19982;-75
2022/11/23 04:54:21;;;;;;;;;;;;;;;6.04;100.00;99503.19;5046938;28;19982;-75
2022/11/23 04:56:47;;;;;;;;;;;;;;;6.02;100.00;99505.03;5046705;28;20533;-75
2022/11/23 04:59:12;;;;;;;;;;;;;;;6.01;100.00;99505.94;5045993;28;20046;-75
2022/11/23 05:01:38;;;;;;;;;;;;;;;5.99;100.00;99502.50;5030613;28;19943;-75
2022/11/23 05:04:03;;;;;;;;;;;;;;;5.97;100.00;99513.13;5046368;28;19933;-75
2022/11/23 05:06:29;;;;;;;;;;;;;;;5.96;100.00;99506.16;5030394;28;19935;-75
2022/11/23 05:08:54;;;;;;;;;;;;;;;5.96;100.00;99514.03;5045771;28;19960;-75
2022/11/23 05:11:19;;;;;;;;;;;;;;;5.95;100.00;99509.69;5043594;28;20454;-75
2022/11/23 05:13:45;;;;;;;;;;;;;;;5.96;100.00;99516.66;5060166;28;19929;-75
2022/11/23 05:16:10;;;;;;;;;;;;;;;5.96;100.00;99514.03;5059773;28;19932;-75
2022/11/23 05:18:36;;;;;;;;;;;;;;;5.95;100.00;99514.09;5046384;28;19928;-75
2022/11/23 05:21:01;;;;;;;;;;;;;;;5.95;100.00;99514.09;5030005;28;19925;-75
2022/11/23 05:23:26;;;;;;;;;;;;;;;5.94;100.00;99517.66;5045610;28;19928;-75
2022/11/23 05:25:52;;;;;;;;;;;;;;;5.93;100.00;99516.78;5045716;28;19933;-75
2022/11/23 05:28:18;;;;;;;;;;;;;;;5.94;100.00;99515.03;5045483;28;20026;-75
2022/11/23 05:30:43;;;;;;;;;;;;;;;5.93;100.00;99519.41;5046060;28;19925;-75
2022/11/23 05:33:09;;;;;;;;;;;;;;;5.94;100.00;99512.41;5030656;28;19931;-75
2022/11/23 05:35:34;;;;;;;;;;;;;;;5.95;100.00;99511.47;5059755;28;19924;-75
2022/11/23 05:38:00;;;;;;;;;;;;;;;5.98;100.00;99516.56;5045848;28;19917;-75
2022/11/23 05:40:26;;;;;;;;;;;;;;;5.98;100.00;99514.81;5013166;28;19932;-75
2022/11/23 05:42:55;;;;;;;;;;;;;;;6.00;100.00;99517.38;5029603;28;20168;-75
2022/11/23 05:45:21;;;;;;;;;;;;;;;6.02;100.00;99525.16;5042816;28;20042;-75
2022/11/23 05:47:50;;;;;;;;;;;;;;;6.03;100.00;99525.13;5042565;28;21109;-75
2022/11/23 05:50:15;;;;;;;;;;;;;;;6.04;100.00;99524.19;5044925;28;19929;-75
2022/11/23 05:52:41;;;;;;;;;;;;;;;6.05;100.00;99525.91;5044897;28;19932;-75
2022/11/23 05:55:06;;;;;;;;;;;;;;;6.06;100.00;99535.47;5045189;28;19929;-75
2022/11/23 05:57:32;;;;;;;;;;;;;;;6.07;100.00;99529.31;5045143;28;20027;-75
2022/11/23 05:59:57;;;;;;;;;;;;;;;6.07;100.00;99525.84;5045390;28;19929;-75
2022/11/23 06:02:22;;;;;;;;;;;;;;;6.07;100.00;99534.56;5044887;28;19935;-75
2022/11/23 06:04:48;;;;;;;;;;;;;;;6.06;100.00;99532.84;5045176;28;20388;-75
2022/11/23 06:07:13;;;;;;;;;;;;;;;6.06;100.00;99538.09;5044156;28;19968;-75
2022/11/23 06:09:39;;;;;;;;;;;;;;;6.05;100.00;99539.03;5044719;28;20422;-75
2022/11/23 06:12:04;;;;;;;;;;;;;;;6.04;100.00;99534.72;5045090;28;20395;-75
2022/11/23 06:14:30;;;;;;;;;;;;;;;6.05;100.00;99539.03;5044817;28;19935;-75
2022/11/23 06:16:55;;;;;;;;;;;;;;;6.04;100.00;99533.88;5044821;28;19937;-75
2022/11/23 06:19:21;;;;;;;;;;;;;;;6.03;100.00;99534.78;5044799;28;20074;-75
2022/11/23 06:21:46;;;;;;;;;;;;;;;6.03;100.00;99538.25;5044303;28;19933;-75
2022/11/23 06:24:11;;;;;;;;;;;;;;;6.04;100.00;99539.13;5025633;28;20371;-75
2022/11/23 06:26:37;;;;;;;;;;;;;;;6.03;100.00;99538.25;5044846;28;19959;-75
2022/11/23 06:29:02;;;;;;;;;;;;;;;6.03;100.00;99543.53;5044954;28;20373;-75
2022/11/23 06:31:28;;;;;;;;;;;;;;;6.04;100.00;99542.59;5034586;28;19932;-75
2022/11/23 06:33:53;;;;;;;;;;;;;;;6.04;100.00;99539.13;5044442;28;19982;-75
2022/11/23 06:36:18;;;;;;;;;;;;;;;6.03;100.00;99538.25;5030553;28;19975;-75
2022/11/23 06:38:44;;;;;;;;;;;;;;;6.04;100.00;99539.97;5044446;28;20033;-75
2022/11/23 06:41:09;;;;;;;;;;;;;;;6.02;100.00;99541.81;5044645;28;19932;-75
2022/11/23 06:43:34;;;;;;;;;;;;;;;6.02;100.00;99543.56;5044280;28;19928;-75
2022/11/23 06:46:02;;;;;;;;;;;;;;;6.01;100.00;99558.47;5044337;28;19928;-76
2022/11/23 06:48:27;;;;;;;;;;;;;;;6.01;100.00;99557.63;5031291;28;19924;-75
2022/11/23 06:50:53;;;;;;;;;;;;;;;6.01;100.00;99555.84;5043925;28;19935;-75
2022/11/23 06:53:18;;;;;;;;;;;;;;;6.01;100.00;99555.00;5044311;28;19929;-75
2022/11/23 06:55:44;;;;;;;;;;;;;;;6.01;100.00;99550.59;5044455;28;19994;-75
2022/11/23 06:58:09;;;;;;;;;;;;;;;6.01;100.00;99561.09;5041104;28;20391;-75
2022/11/23 07:00:34;;;;;;;;;;;;;;;6.02;100.00;99567.19;5028618;28;19928;-75
2022/11/23 07:03:00;;;;;;;;;;;;;;;6.03;100.00;99564.53;5044373;28;19932;-76
2022/11/23 07:05:26;;;;;;;;;;;;;;;6.03;100.00;99554.03;5040617;28;19931;-75
2022/11/23 07:07:52;;;;;;;;;;;;;;;6.05;100.00;99564.47;5024093;28;21444;-75
2022/11/23 07:10:17;;;;;;;;;;;;;;;6.04;100.00;99571.50;5041607;28;19929;-75
2022/11/23 07:12:43;;;;;;;;;;;;;;;6.05;100.00;99567.09;5043538;28;19952;-75
2022/11/23 07:15:09;;;;;;;;;;;;;;;6.05;100.00;99567.94;5013925;28;19932;-74
2022/11/23 07:17:37;;;;;;;;;;;;;;;6.06;100.00;99569.63;5044341;28;19964;-75
2022/11/23 07:20:03;;;;;;;;;;;;;;;6.08;100.00;99572.19;5029797;28;19956;-75
2022/11/23 07:22:28;;;;;;;;;;;;;;;6.07;100.00;99576.63;5018075;28;20475;-75
2022/11/23 07:24:54;;;;;;;;;;;;;;;6.08;100.00;99573.06;5023210;28;19939;-75
2022/11/23 07:27:19;;;;;;;;;;;;;;;6.09;100.00;99580.03;5043133;28;20451;-75
2022/11/23 07:29:45;;;;;;;;;;;;;;;6.10;100.00;99581.72;5043463;28;19940;-76
2022/11/23 07:32:10;;;;;;;;;;;;;;;6.11;100.00;99587.84;5044054;28;19929;-74
2022/11/23 07:34:35;;;;;;;;;;;;;;;6.13;100.00;99595.63;5012701;28;19928;-75
2022/11/23 07:37:02;;;;;;;;;;;;;;;6.13;100.00;99593.00;5043976;28;19932;-75
2022/11/23 07:39:28;;;;;;;;;;;;;;;6.14;100.00;99600.00;5044167;28;19925;-75
2022/11/23 07:41:53;;;;;;;;;;;;;;;6.12;100.00;99600.06;5028141;28;19928;-75
2022/11/23 07:44:19;;;;;;;;;;;;;;;6.13;100.00;99603.50;5043752;28;20011;-75
2022/11/23 07:46:44;;;;;;;;;;;;;;;6.11;100.00;99599.19;5028188;28;19990;-75
2022/11/23 07:49:09;;;;;;;;;;;;;;;6.13;100.00;99608.78;5043114;28;19928;-75
2022/11/23 07:51:35;;;;;;;;;;;;;;;6.13;100.00;99614.03;5043360;28;19968;-75
2022/11/23 07:54:00;;;;;;;;;;;;;;;6.13;100.00;99606.13;5057659;28;19959;-75
2022/11/23 07:56:26;;;;;;;;;;;;;;;6.13;100.00;99608.78;5043424;28;19935;-74
2022/11/23 07:58:51;;;;;;;;;;;;;;;6.13;100.00;99606.13;5043802;28;20023;-75
2022/11/23 08:01:17;;;;;;;;;;;;;;;6.13;100.00;99612.25;5043574;28;19934;-74
2022/11/23 08:03:46;;;;;;;;;;;;;;;6.14;100.00;99613.13;5027011;28;19929;-80
2022/11/23 08:06:11;;;;;;;;;;;;;;;6.14;100.00;99615.75;5041137;28;20350;-78
2022/11/23 08:08:37;;;;;;;;;;;;;;;6.15;100.00;99615.66;5042111;28;19947;-76
2022/11/23 08:11:06;;;;;;;;;;;;;;;6.16;100.00;99613.91;5042685;28;19929;-76
2022/11/23 08:13:34;;;;;;;;;;;;;;;6.18;100.00;99612.91;5043204;28;20031;-75
2022/11/23 08:16:00;;;;;;;;;;;;;;;6.21;100.00;99611.91;5030549;28;20546;-75
2022/11/23 08:18:26;;;;;;;;;;;;;;;6.25;100.00;99616.09;5047042;28;19932;-75
2022/11/23 08:20:51;;;;;;;;;;;;;;;6.27;100.00;99614.25;5033439;28;20357;-75
2022/11/23 08:23:17;;;;;;;;;;;;;;;6.29;100.00;99622.91;5027341;28;19956;-75
2022/11/23 08:25:42;;;;;;;;;;;;;;;6.33;100.00;99619.19;5060766;28;19982;-75
2022/11/23 08:28:07;;;;;;;;;;;;;;;6.38;100.00;99624.25;5046590;28;20311;-75
2022/11/23 08:30:33;;;;;;;;;;;;;;;6.41;100.00;99625.88;5046655;28;20023;-75
2022/11/23 08:33:01;;;;;;;;;;;;;;;6.47;100.00;99630.84;5047062;28;19929;-74
2022/11/23 08:35:26;;;;;;;;;;;;;;;6.49;100.00;99632.47;5046953;28;19982;-75
2022/11/23 08:37:52;;;;;;;;;;;;;;;6.51;100.00;99625.38;5046503;28;19933;-74
2022/11/23 08:40:17;;;;;;;;;;;;;;;6.55;100.00;99626.09;5046548;28;19939;-75
2022/11/23 08:42:43;;;;;;;;;;;;;;;6.57;100.00;99634.75;5046464;28;20406;-74
2022/11/23 08:45:08;;;;;;;;;;;;;;;6.59;100.00;99640.78;5046493;28;19983;-75
2022/11/23 08:47:34;;;;;;;;;;;;;;;6.61;100.00;99638.06;5046880;28;20307;-75
2022/11/23 08:49:59;;;;;;;;;;;;;;;6.62;100.00;99642.41;5046143;28;19940;-75
2022/11/23 08:52:25;;;;;;;;;;;;;;;6.65;100.00;99650.16;5027346;28;19979;-75
2022/11/23 08:54:50;;;;;;;;;;;;;;;6.65;100.00;99656.25;5033016;28;19951;-74
2022/11/23 08:57:16;;;;;;;;;;;;;;;6.68;100.00;99651.75;5036442;28;20028;-75
2022/11/23 08:59:41;;;;;;;;;;;;;;;6.70;100.00;99655.19;5046280;28;19933;-75
2022/11/23 09:02:09;;;;;;;;;;;;;;;6.70;100.00;99652.56;5043989;28;19932;-75
2022/11/23 09:04:34;;;;;;;;;;;;;;;6.70;100.00;99645.50;5012090;28;19962;-86
2022/11/23 09:07:01;;;;;;;;;;;;;;;6.71;100.00;99644.56;4978105;28;20868;-76
2022/11/23 09:09:27;;;;;;;;;;;;;;;6.72;100.00;99643.69;5025131;28;20351;-76
2022/11/23 09:11:53;;;;;;;;;;;;;;;6.73;100.00;99634.84;4991200;28;19932;-75
2022/11/23 09:14:18;;;;;;;;;;;;;;;6.74;100.00;99635.69;5021308;28;19928;-75
2022/11/23 09:16:44;;;;;;;;;;;;;;;6.76;100.00;99642.59;5008044;28;19982;-76
2022/11/23 09:19:11;;;;;;;;;;;;;;;6.77;100.00;99640.81;5004604;28;19939;-75
2022/11/23 09:21:38;;;;;;;;;;;;;;;6.76;100.00;99637.31;5005285;28;20379;-76
2022/11/23 09:24:03;;;;;;;;;;;;;;;6.76;100.00;99636.50;5020507;28;20476;-76
2022/11/23 09:26:30;;;;;;;;;;;;;;;6.77;100.00;99639.03;5021556;28;19939;-75
2022/11/23 09:28:56;;;;;;;;;;;;;;;6.81;100.00;99636.25;5017861;28;19933;-75
2022/11/23 09:31:22;;;;;;;;;;;;;;;6.82;100.00;99644.09;5025949;28;20429;-75
2022/11/23 09:33:50;;;;;;;;;;;;;;;6.84;100.00;99634.31;5008414;28;20719;-75
2022/11/23 09:36:16;;;;;;;;;;;;;;;6.86;100.00;99632.47;5023489;28;19963;-76
2022/11/23 09:38:44;;;;;;;;;;;;;;;6.89;100.00;99631.47;5003214;28;19928;-76
2022/11/23 09:41:23;;;;;;;;;;;;;;;6.90;100.00;99633.16;5020850;28;21096;-76
2022/11/23 09:44:09;;;;;;;;;;;;;;;6.92;100.00;99621.63;5034123;28;20664;-76
2022/11/23 09:46:53;;;;;;;;;;;;;;;6.93;100.00;99623.34;5022815;28;20138;-76
2022/11/23 09:49:19;;;;;;;;;;;;;;;6.92;100.00;99621.63;5021835;28;19928;-76
2022/11/23 09:51:45;;;;;;;;;;;;;;;6.92;100.00;99616.38;5020798;28;19968;-76
2022/11/23 09:54:32;;;;;;;;;;;;;;;6.92;100.00;99616.38;5005991;28;19935;-76
2022/11/23 09:56:58;;;;;;;;;;;;;;;6.93;100.00;99623.34;5003070;28;20615;-76
2022/11/23 09:59:23;;;;;;;;;;;;;;;6.97;100.00;99629.28;5024500;28;20157;-76
2022/11/23 10:01:49;;;;;;;;;;;;;;;7.00;100.00;99631.78;5025328;28;20520;-76
2022/11/23 10:04:18;;;;;;;;;;;;;;;7.02;100.00;99637.81;5020314;28;19984;-76
2022/11/23 10:06:43;;;;;;;;;;;;;;;7.03;100.00;99634.25;5003395;28;19979;-75
2022/11/23 10:09:18;;;;;;;;;;;;;;;7.04;100.00;99629.84;5005324;28;20383;-75
2022/11/23 10:11:53;;;;;;;;;;;;;;;7.01;100.00;99625.59;5019245;28;19924;-75
2022/11/23 10:14:35;;;;;;;;;;;;;;;7.02;100.00;99629.06;5020634;28;20651;-75
2022/11/23 10:17:03;;;;;;;;;;;;;;;7.04;100.00;99614.06;5004048;28;19975;-75
2022/11/23 10:19:41;;;;;;;;;;;;;;;7.06;100.00;99612.19;5005592;28;19928;-75
2022/11/23 10:22:08;;;;;;;;;;;;;;;7.09;100.00;99608.56;5003213;28;20010;-75
2022/11/23 10:24:38;;;;;;;;;;;;;;;7.10;100.00;99608.50;5008433;28;19935;-75
2022/11/23 10:27:11;;;;;;;;;;;;;;;7.12;100.00;99601.38;5017803;28;19979;-75
2022/11/23 10:29:37;;;;;;;;;;;;;;;7.15;100.00;99598.56;5013753;28;20759;-76
2022/11/23 10:32:04;;;;;;;;;;;;;;;7.19;100.00;99605.38;5022260;28;20282;-75
2022/11/23 10:34:29;;;;;;;;;;;;;;;7.22;100.00;99595.63;5020408;28;19962;-75
2022/11/23 10:36:55;;;;;;;;;;;;;;;7.25;100.00;99596.31;5020683;28;19932;-75
2022/11/23 10:39:24;;;;;;;;;;;;;;;7.30;100.00;99591.66;5004221;28;19929;-76
2022/11/23 10:41:50;;;;;;;;;;;;;;;7.39;100.00;99590.34;5015620;28;19951;-76
2022/11/23 10:44:18;;;;;;;;;;;;;;;7.46;100.00;99588.22;5004381;28;19929;-77
2022/11/23 10:46:44;;;;;;;;;;;;;;;7.45;100.00;99581.25;5015554;28;21649;-76
2022/11/23 10:49:20;;;;;;;;;;;;;;;7.43;100.00;99584.00;5019411;28;20161;-75
2022/11/23 10:51:49;;;;;;;;;;;;;;;7.40;100.00;99570.97;5002179;28;20289;-76
2022/11/23 10:54:17;;;;;;;;;;;;;;;7.34;100.00;99564.25;5004359;28;19929;-76
2022/11/23 10:56:46;;;;;;;;;;;;;;;7.33;100.00;99567.81;5017647;28;20488;-75
2022/11/23 10:59:24;;;;;;;;;;;;;;;7.32;100.00;99575.78;5021234;28;20290;-76
2022/11/23 11:01:58;;;;;;;;;;;;;;;7.31;100.00;99569.66;5025785;28;20363;-75
2022/11/23 11:04:24;;;;;;;;;;;;;;;7.31;100.00;99567.03;5004358;28;20461;-76
2022/11/23 11:06:50;;;;;;;;;;;;;;;7.33;100.00;99554.66;5021377;28;20062;-85
2022/11/23 11:09:19;;;;;;;;;;;;;;;7.36;100.00;99551.03;4990936;28;20489;-76
2022/11/23 11:11:46;;;;;;;;;;;;;;;7.35;100.00;99546.66;5020235;28;20018;-76
2022/11/23 11:14:14;;;;;;;;;;;;;;;7.34;100.00;99543.19;5021596;28;20370;-76
2022/11/23 11:16:46;;;;;;;;;;;;;;;7.35;100.00;99538.75;5019710;28;19925;-76
2022/11/23 11:19:28;;;;;;;;;;;;;;;7.35;100.00;99538.75;5021602;28;20450;-76
2022/11/23 11:21:54;;;;;;;;;;;;;;;7.34;100.00;99537.94;5020019;28;19928;-76
2022/11/23 11:24:20;;;;;;;;;;;;;;;7.36;100.00;99531.72;5005056;28;20389;-76
2022/11/23 11:26:54;;;;;;;;;;;;;;;7.34;100.00;99522.13;5000713;28;19940;-76
2022/11/23 11:29:38;;;;;;;;;;;;;;;7.31;100.00;99532.81;5004592;28;19999;-76
2022/11/23 11:32:07;;;;;;;;;;;;;;;7.30;100.00;99530.28;5005757;28;19989;-76
2022/11/23 11:34:33;;;;;;;;;;;;;;;7.33;100.00;99530.09;5018720;28;19924;-76
2022/11/23 11:37:08;;;;;;;;;;;;;;;7.38;100.00;99533.34;5018482;28;20394;-75
2022/11/23 11:39:36;;;;;;;;;;;;;;;7.44;100.00;99543.56;5034552;28;20073;-74
2022/11/23 11:42:03;;;;;;;;;;;;;;;7.47;100.00;99535.47;5000804;28;20328;-76
2022/11/23 11:44:28;;;;;;;;;;;;;;;7.48;100.00;99534.53;5003548;28;20220;-76
2022/11/23 11:47:00;;;;;;;;;;;;;;;7.50;100.00;99538.88;5001987;28;20679;-76
2022/11/23 11:49:29;;;;;;;;;;;;;;;7.48;100.00;99529.28;5003997;28;20082;-75
2022/11/23 11:52:01;;;;;;;;;;;;;;;7.50;100.00;99536.25;5004811;28;20067;-76
2022/11/23 11:54:31;;;;;;;;;;;;;;;7.51;100.00;99537.97;5005401;28;20065;-76
2022/11/23 11:57:01;;;;;;;;;;;;;;;7.52;100.00;99537.84;5023148;28;20656;-77
2022/11/23 11:59:43;;;;;;;;;;;;;;;7.56;100.00;99535.91;4990484;28;20561;-75
2022/11/23 12:02:14;;;;;;;;;;;;;;;7.58;100.00;99539.34;5026964;28;21225;-75
2022/11/23 12:05:00;;;;;;;;;;;;;;;7.59;100.00;99541.03;5018819;28;19929;-75
2022/11/23 12:07:35;;;;;;;;;;;;;;;7.63;100.00;99544.34;4992867;28;19924;-76
2022/11/23 12:10:06;;;;;;;;;;;;;;;7.63;100.00;99539.91;5016020;28;21759;-76
2022/11/23 12:12:32;;;;;;;;;;;;;;;7.64;100.00;99538.16;5015735;28;20315;-77
2022/11/23 12:14:57;;;;;;;;;;;;;;;7.66;100.00;99541.53;4992318;28;19935;-76
2022/11/23 12:17:39;;;;;;;;;;;;;;;7.68;100.00;99545.78;5019693;28;19928;-77
2022/11/23 12:20:12;;;;;;;;;;;;;;;7.69;100.00;99550.13;5020074;28;20013;-76
2022/11/23 12:22:40;;;;;;;;;;;;;;;7.69;100.00;99541.38;4999119;28;19935;-76
2022/11/23 12:25:24;;;;;;;;;;;;;;;7.72;100.00;99536.81;5018618;28;21225;-76
2022/11/23 12:28:08;;;;;;;;;;;;;;;7.73;100.00;99537.63;5011018;28;20349;-76
2022/11/23 12:30:43;;;;;;;;;;;;;;;7.74;100.00;99540.19;5025501;28;19925;-76
2022/11/23 12:33:15;;;;;;;;;;;;;;;7.73;100.00;99543.75;5011336;28;20060;-76
2022/11/23 12:35:44;;;;;;;;;;;;;;;7.75;100.00;99541.06;5027227;28;19968;-75
2022/11/23 12:38:28;;;;;;;;;;;;;;;7.76;100.00;99540.13;5026288;28;19944;-76
2022/11/23 12:41:00;;;;;;;;;;;;;;;7.79;100.00;99544.38;5024280;28;20407;-76
2022/11/23 12:43:27;;;;;;;;;;;;;;;7.79;100.00;99541.75;5026142;28;20343;-75
2022/11/23 12:46:11;;;;;;;;;;;;;;;7.79;100.00;99539.94;5008732;28;19976;-75
2022/11/23 12:48:44;;;;;;;;;;;;;;;7.80;100.00;99538.16;5028152;28;20003;-76